sensor_id;sensor_type;location;lat;lon;timestamp;P1;durP1;ratioP1;P2;durP2;ratioP2
31308;SDS011;17936;52.446;10.840;2023-05-15T00:02:04;9.10;;;3.90;;
31308;SDS011;17936;52.446;10.840;2023-05-15T00:04:29;7.32;;;4.28;;
31308;SDS011;17936;52.446;10.840;2023-05-15T00:06:55;8.20;;;4.35;;
31308;SDS011;17936;52.446;10.840;2023-05-15T00:09:21;8.50;;;4.35;;
31308;SDS011;17936;52.446;10.840;2023-05-15T00:11:47;6.60;;;4.22;;
31308;SDS011;17936;52.446;10.840;2023-05-15T00:14:12;7.47;;;4.13;;
31308;SDS011;17936;52.446;10.840;2023-05-15T00:16:38;10.20;;;4.45;;
31308;SDS011;17936;52.446;10.840;2023-05-15T00:19:03;7.88;;;4.00;;
31308;SDS011;17936;52.446;10.840;2023-05-15T00:21:29;7.35;;;4.32;;
31308;SDS011;17936;52.446;10.840;2023-05-15T00:23:55;7.20;;;4.15;;
31308;SDS011;17936;52.446;10.840;2023-05-15T00:26:22;6.55;;;3.88;;
31308;SDS011;17936;52.446;10.840;2023-05-15T00:28:48;6.25;;;4.07;;
31308;SDS011;17936;52.446;10.840;2023-05-15T00:31:14;7.57;;;4.32;;
31308;SDS011;17936;52.446;10.840;2023-05-15T00:33:39;7.13;;;4.07;;
31308;SDS011;17936;52.446;10.840;2023-05-15T00:36:05;6.35;;;4.18;;
31308;SDS011;17936;52.446;10.840;2023-05-15T00:38:31;6.85;;;4.22;;
31308;SDS011;17936;52.446;10.840;2023-05-15T00:40:57;8.02;;;4.15;;
31308;SDS011;17936;52.446;10.840;2023-05-15T00:43:24;6.45;;;3.97;;
31308;SDS011;17936;52.446;10.840;2023-05-15T00:45:51;5.75;;;3.83;;
31308;SDS011;17936;52.446;10.840;2023-05-15T00:48:17;8.30;;;4.20;;
31308;SDS011;17936;52.446;10.840;2023-05-15T00:50:43;6.18;;;4.32;;
31308;SDS011;17936;52.446;10.840;2023-05-15T00:53:09;10.35;;;5.38;;
31308;SDS011;17936;52.446;10.840;2023-05-15T00:55:35;9.73;;;5.45;;
31308;SDS011;17936;52.446;10.840;2023-05-15T00:58:02;6.88;;;4.50;;
31308;SDS011;17936;52.446;10.840;2023-05-15T01:00:28;7.93;;;4.25;;
31308;SDS011;17936;52.446;10.840;2023-05-15T01:02:55;6.35;;;3.97;;
31308;SDS011;17936;52.446;10.840;2023-05-15T01:05:20;10.50;;;4.55;;
31308;SDS011;17936;52.446;10.840;2023-05-15T01:07:56;10.80;;;4.50;;
31308;SDS011;17936;52.446;10.840;2023-05-15T01:10:34;7.57;;;4.18;;
31308;SDS011;17936;52.446;10.840;2023-05-15T01:13:01;7.53;;;4.10;;
31308;SDS011;17936;52.446;10.840;2023-05-15T01:15:27;7.13;;;4.45;;
31308;SDS011;17936;52.446;10.840;2023-05-15T01:17:53;8.98;;;4.57;;
31308;SDS011;17936;52.446;10.840;2023-05-15T01:20:18;6.63;;;4.32;;
31308;SDS011;17936;52.446;10.840;2023-05-15T01:23:33;11.27;;;4.40;;
31308;SDS011;17936;52.446;10.840;2023-05-15T01:25:45;6.32;;;4.65;;
31308;SDS011;17936;52.446;10.840;2023-05-15T01:28:33;8.68;;;4.53;;
31308;SDS011;17936;52.446;10.840;2023-05-15T01:31:05;7.55;;;5.13;;
31308;SDS011;17936;52.446;10.840;2023-05-15T01:33:38;8.35;;;4.80;;
31308;SDS011;17936;52.446;10.840;2023-05-15T01:36:10;8.68;;;5.13;;
31308;SDS011;17936;52.446;10.840;2023-05-15T01:38:43;7.05;;;4.93;;
31308;SDS011;17936;52.446;10.840;2023-05-15T01:43:59;6.38;;;4.20;;
31308;SDS011;17936;52.446;10.840;2023-05-15T01:46:30;8.07;;;4.55;;
31308;SDS011;17936;52.446;10.840;2023-05-15T01:49:08;6.63;;;4.53;;
31308;SDS011;17936;52.446;10.840;2023-05-15T01:51:36;7.10;;;5.03;;
31308;SDS011;17936;52.446;10.840;2023-05-15T01:54:03;8.80;;;4.82;;
31308;SDS011;17936;52.446;10.840;2023-05-15T01:56:32;8.73;;;4.75;;
31308;SDS011;17936;52.446;10.840;2023-05-15T01:58:58;6.80;;;4.65;;
31308;SDS011;17936;52.446;10.840;2023-05-15T02:01:25;7.25;;;4.47;;
31308;SDS011;17936;52.446;10.840;2023-05-15T02:03:51;7.82;;;4.43;;
31308;SDS011;17936;52.446;10.840;2023-05-15T02:06:18;8.43;;;4.78;;
31308;SDS011;17936;52.446;10.840;2023-05-15T02:08:45;13.32;;;5.63;;
31308;SDS011;17936;52.446;10.840;2023-05-15T02:11:12;11.70;;;5.40;;
31308;SDS011;17936;52.446;10.840;2023-05-15T02:13:38;6.93;;;4.90;;
31308;SDS011;17936;52.446;10.840;2023-05-15T02:16:05;7.07;;;5.07;;
31308;SDS011;17936;52.446;10.840;2023-05-15T02:18:31;8.23;;;5.38;;
31308;SDS011;17936;52.446;10.840;2023-05-15T02:20:56;7.18;;;4.85;;
31308;SDS011;17936;52.446;10.840;2023-05-15T02:23:24;8.32;;;5.57;;
31308;SDS011;17936;52.446;10.840;2023-05-15T02:28:40;9.23;;;5.68;;
31308;SDS011;17936;52.446;10.840;2023-05-15T02:31:16;6.68;;;5.13;;
31308;SDS011;17936;52.446;10.840;2023-05-15T02:36:39;9.00;;;5.00;;
31308;SDS011;17936;52.446;10.840;2023-05-15T02:39:06;10.32;;;6.18;;
31308;SDS011;17936;52.446;10.840;2023-05-15T02:41:35;9.68;;;5.72;;
31308;SDS011;17936;52.446;10.840;2023-05-15T02:44:02;10.30;;;5.75;;
31308;SDS011;17936;52.446;10.840;2023-05-15T02:46:28;9.80;;;5.65;;
31308;SDS011;17936;52.446;10.840;2023-05-15T02:48:54;7.40;;;5.32;;
31308;SDS011;17936;52.446;10.840;2023-05-15T02:51:19;9.98;;;5.93;;
31308;SDS011;17936;52.446;10.840;2023-05-15T02:53:46;10.20;;;5.72;;
31308;SDS011;17936;52.446;10.840;2023-05-15T02:56:11;8.02;;;5.65;;
31308;SDS011;17936;52.446;10.840;2023-05-15T02:58:37;9.10;;;5.35;;
31308;SDS011;17936;52.446;10.840;2023-05-15T03:01:03;8.40;;;5.25;;
31308;SDS011;17936;52.446;10.840;2023-05-15T03:03:29;12.32;;;6.05;;
31308;SDS011;17936;52.446;10.840;2023-05-15T03:05:55;7.80;;;5.60;;
31308;SDS011;17936;52.446;10.840;2023-05-15T03:08:20;10.38;;;5.60;;
31308;SDS011;17936;52.446;10.840;2023-05-15T03:10:46;8.15;;;5.80;;
31308;SDS011;17936;52.446;10.840;2023-05-15T03:13:11;8.75;;;6.00;;
31308;SDS011;17936;52.446;10.840;2023-05-15T03:15:37;8.13;;;5.28;;
31308;SDS011;17936;52.446;10.840;2023-05-15T03:18:02;10.98;;;5.97;;
31308;SDS011;17936;52.446;10.840;2023-05-15T03:20:28;8.48;;;6.10;;
31308;SDS011;17936;52.446;10.840;2023-05-15T03:22:53;8.57;;;5.95;;
31308;SDS011;17936;52.446;10.840;2023-05-15T03:25:19;9.48;;;5.65;;
31308;SDS011;17936;52.446;10.840;2023-05-15T03:27:46;8.68;;;5.53;;
31308;SDS011;17936;52.446;10.840;2023-05-15T03:30:11;8.52;;;5.72;;
31308;SDS011;17936;52.446;10.840;2023-05-15T03:32:37;9.80;;;6.47;;
31308;SDS011;17936;52.446;10.840;2023-05-15T03:35:02;8.63;;;5.82;;
31308;SDS011;17936;52.446;10.840;2023-05-15T03:37:28;8.48;;;5.88;;
31308;SDS011;17936;52.446;10.840;2023-05-15T03:39:54;9.77;;;5.93;;
31308;SDS011;17936;52.446;10.840;2023-05-15T03:42:19;7.43;;;5.65;;
31308;SDS011;17936;52.446;10.840;2023-05-15T03:44:48;9.38;;;6.20;;
31308;SDS011;17936;52.446;10.840;2023-05-15T03:47:14;8.43;;;6.15;;
31308;SDS011;17936;52.446;10.840;2023-05-15T03:49:40;9.40;;;6.25;;
31308;SDS011;17936;52.446;10.840;2023-05-15T03:52:06;14.75;;;5.97;;
31308;SDS011;17936;52.446;10.840;2023-05-15T03:54:32;9.13;;;6.20;;
31308;SDS011;17936;52.446;10.840;2023-05-15T03:56:57;9.35;;;6.20;;
31308;SDS011;17936;52.446;10.840;2023-05-15T03:59:23;14.80;;;6.50;;
31308;SDS011;17936;52.446;10.840;2023-05-15T04:01:48;9.00;;;6.13;;
31308;SDS011;17936;52.446;10.840;2023-05-15T04:04:14;10.43;;;5.95;;
31308;SDS011;17936;52.446;10.840;2023-05-15T04:06:40;8.95;;;5.82;;
31308;SDS011;17936;52.446;10.840;2023-05-15T04:09:05;11.13;;;6.13;;
31308;SDS011;17936;52.446;10.840;2023-05-15T04:11:31;9.18;;;6.35;;
31308;SDS011;17936;52.446;10.840;2023-05-15T04:13:58;10.77;;;6.82;;
31308;SDS011;17936;52.446;10.840;2023-05-15T04:16:24;13.80;;;6.18;;
31308;SDS011;17936;52.446;10.840;2023-05-15T04:18:50;11.77;;;6.75;;
31308;SDS011;17936;52.446;10.840;2023-05-15T04:21:15;11.02;;;5.80;;
31308;SDS011;17936;52.446;10.840;2023-05-15T04:23:41;11.80;;;6.53;;
31308;SDS011;17936;52.446;10.840;2023-05-15T04:26:06;11.23;;;6.57;;
31308;SDS011;17936;52.446;10.840;2023-05-15T04:28:33;8.82;;;6.13;;
31308;SDS011;17936;52.446;10.840;2023-05-15T04:30:58;10.70;;;6.63;;
31308;SDS011;17936;52.446;10.840;2023-05-15T04:33:24;10.63;;;6.32;;
31308;SDS011;17936;52.446;10.840;2023-05-15T04:35:50;9.40;;;6.75;;
31308;SDS011;17936;52.446;10.840;2023-05-15T04:38:16;11.23;;;5.45;;
31308;SDS011;17936;52.446;10.840;2023-05-15T04:40:42;9.82;;;5.78;;
31308;SDS011;17936;52.446;10.840;2023-05-15T04:43:07;8.38;;;5.85;;
31308;SDS011;17936;52.446;10.840;2023-05-15T04:45:33;9.15;;;6.18;;
31308;SDS011;17936;52.446;10.840;2023-05-15T04:47:59;12.75;;;6.72;;
31308;SDS011;17936;52.446;10.840;2023-05-15T04:50:24;13.02;;;6.13;;
31308;SDS011;17936;52.446;10.840;2023-05-15T04:52:50;10.43;;;6.25;;
31308;SDS011;17936;52.446;10.840;2023-05-15T04:55:15;8.52;;;5.97;;
31308;SDS011;17936;52.446;10.840;2023-05-15T04:57:41;8.77;;;6.25;;
31308;SDS011;17936;52.446;10.840;2023-05-15T05:00:07;10.57;;;6.25;;
31308;SDS011;17936;52.446;10.840;2023-05-15T05:02:36;8.75;;;6.10;;
31308;SDS011;17936;52.446;10.840;2023-05-15T05:05:02;9.20;;;6.43;;
31308;SDS011;17936;52.446;10.840;2023-05-15T05:07:29;8.25;;;5.90;;
31308;SDS011;17936;52.446;10.840;2023-05-15T05:09:54;10.77;;;6.55;;
31308;SDS011;17936;52.446;10.840;2023-05-15T05:12:20;10.43;;;6.22;;
31308;SDS011;17936;52.446;10.840;2023-05-15T05:14:45;9.00;;;6.13;;
31308;SDS011;17936;52.446;10.840;2023-05-15T05:17:11;12.23;;;5.97;;
31308;SDS011;17936;52.446;10.840;2023-05-15T05:19:36;12.60;;;6.97;;
31308;SDS011;17936;52.446;10.840;2023-05-15T05:22:03;10.18;;;6.40;;
31308;SDS011;17936;52.446;10.840;2023-05-15T05:24:29;10.43;;;5.93;;
31308;SDS011;17936;52.446;10.840;2023-05-15T05:26:55;14.30;;;6.32;;
31308;SDS011;17936;52.446;10.840;2023-05-15T05:29:24;10.73;;;6.00;;
31308;SDS011;17936;52.446;10.840;2023-05-15T05:31:50;11.77;;;6.57;;
31308;SDS011;17936;52.446;10.840;2023-05-15T05:34:17;9.25;;;5.95;;
31308;SDS011;17936;52.446;10.840;2023-05-15T05:36:43;12.35;;;6.15;;
31308;SDS011;17936;52.446;10.840;2023-05-15T05:39:08;13.95;;;6.78;;
31308;SDS011;17936;52.446;10.840;2023-05-15T05:41:34;10.55;;;6.35;;
31308;SDS011;17936;52.446;10.840;2023-05-15T05:43:59;10.15;;;6.47;;
31308;SDS011;17936;52.446;10.840;2023-05-15T05:46:25;12.38;;;5.97;;
31308;SDS011;17936;52.446;10.840;2023-05-15T05:48:51;6.93;;;5.57;;
31308;SDS011;17936;52.446;10.840;2023-05-15T05:51:16;14.27;;;6.35;;
31308;SDS011;17936;52.446;10.840;2023-05-15T05:53:42;9.75;;;5.82;;
31308;SDS011;17936;52.446;10.840;2023-05-15T05:56:07;9.63;;;5.95;;
31308;SDS011;17936;52.446;10.840;2023-05-15T05:58:33;11.80;;;6.10;;
31308;SDS011;17936;52.446;10.840;2023-05-15T06:00:59;10.73;;;5.97;;
31308;SDS011;17936;52.446;10.840;2023-05-15T06:03:25;10.63;;;5.95;;
31308;SDS011;17936;52.446;10.840;2023-05-15T06:05:51;9.35;;;5.88;;
31308;SDS011;17936;52.446;10.840;2023-05-15T06:08:17;9.90;;;6.15;;
31308;SDS011;17936;52.446;10.840;2023-05-15T06:10:43;10.20;;;6.50;;
31308;SDS011;17936;52.446;10.840;2023-05-15T06:13:09;11.80;;;6.68;;
31308;SDS011;17936;52.446;10.840;2023-05-15T06:15:35;10.02;;;6.25;;
31308;SDS011;17936;52.446;10.840;2023-05-15T06:18:01;11.82;;;6.07;;
31308;SDS011;17936;52.446;10.840;2023-05-15T06:20:27;10.93;;;6.05;;
31308;SDS011;17936;52.446;10.840;2023-05-15T06:22:52;8.65;;;5.25;;
31308;SDS011;17936;52.446;10.840;2023-05-15T06:25:18;11.43;;;5.88;;
31308;SDS011;17936;52.446;10.840;2023-05-15T06:27:43;10.45;;;5.95;;
31308;SDS011;17936;52.446;10.840;2023-05-15T06:30:09;8.52;;;5.45;;
31308;SDS011;17936;52.446;10.840;2023-05-15T06:32:35;10.98;;;6.65;;
31308;SDS011;17936;52.446;10.840;2023-05-15T06:35:01;11.52;;;5.55;;
31308;SDS011;17936;52.446;10.840;2023-05-15T06:37:27;9.13;;;5.80;;
31308;SDS011;17936;52.446;10.840;2023-05-15T06:39:53;8.50;;;5.75;;
31308;SDS011;17936;52.446;10.840;2023-05-15T06:42:20;7.90;;;5.35;;
31308;SDS011;17936;52.446;10.840;2023-05-15T06:44:46;7.97;;;5.30;;
31308;SDS011;17936;52.446;10.840;2023-05-15T06:47:11;8.90;;;5.38;;
31308;SDS011;17936;52.446;10.840;2023-05-15T06:49:37;7.95;;;5.45;;
31308;SDS011;17936;52.446;10.840;2023-05-15T06:52:02;7.03;;;5.22;;
31308;SDS011;17936;52.446;10.840;2023-05-15T06:54:28;8.98;;;5.50;;
31308;SDS011;17936;52.446;10.840;2023-05-15T06:56:54;8.90;;;5.03;;
31308;SDS011;17936;52.446;10.840;2023-05-15T06:59:19;9.10;;;5.45;;
31308;SDS011;17936;52.446;10.840;2023-05-15T07:01:45;7.43;;;5.13;;
31308;SDS011;17936;52.446;10.840;2023-05-15T07:04:10;11.20;;;5.03;;
31308;SDS011;17936;52.446;10.840;2023-05-15T07:06:36;11.35;;;5.68;;
31308;SDS011;17936;52.446;10.840;2023-05-15T07:09:01;10.15;;;5.45;;
31308;SDS011;17936;52.446;10.840;2023-05-15T07:11:28;8.77;;;5.55;;
31308;SDS011;17936;52.446;10.840;2023-05-15T07:13:54;11.60;;;5.40;;
31308;SDS011;17936;52.446;10.840;2023-05-15T07:16:19;9.10;;;5.65;;
31308;SDS011;17936;52.446;10.840;2023-05-15T07:18:45;10.32;;;5.45;;
31308;SDS011;17936;52.446;10.840;2023-05-15T07:21:10;17.00;;;6.15;;
31308;SDS011;17936;52.446;10.840;2023-05-15T07:23:36;11.30;;;5.72;;
31308;SDS011;17936;52.446;10.840;2023-05-15T07:26:02;10.35;;;5.60;;
31308;SDS011;17936;52.446;10.840;2023-05-15T07:28:27;11.32;;;5.70;;
31308;SDS011;17936;52.446;10.840;2023-05-15T07:30:53;8.05;;;5.30;;
31308;SDS011;17936;52.446;10.840;2023-05-15T07:33:18;15.77;;;5.75;;
31308;SDS011;17936;52.446;10.840;2023-05-15T07:35:44;9.82;;;5.90;;
31308;SDS011;17936;52.446;10.840;2023-05-15T07:38:09;16.35;;;5.40;;
31308;SDS011;17936;52.446;10.840;2023-05-15T07:40:35;10.90;;;5.78;;
31308;SDS011;17936;52.446;10.840;2023-05-15T07:43:01;6.63;;;5.07;;
31308;SDS011;17936;52.446;10.840;2023-05-15T07:45:26;15.52;;;5.47;;
31308;SDS011;17936;52.446;10.840;2023-05-15T07:47:52;5.80;;;4.90;;
31308;SDS011;17936;52.446;10.840;2023-05-15T07:50:18;14.02;;;5.40;;
31308;SDS011;17936;52.446;10.840;2023-05-15T07:52:44;13.85;;;5.65;;
31308;SDS011;17936;52.446;10.840;2023-05-15T07:55:10;10.13;;;4.90;;
31308;SDS011;17936;52.446;10.840;2023-05-15T07:57:36;12.23;;;5.82;;
31308;SDS011;17936;52.446;10.840;2023-05-15T08:00:02;7.07;;;4.80;;
31308;SDS011;17936;52.446;10.840;2023-05-15T08:02:34;7.70;;;4.75;;
31308;SDS011;17936;52.446;10.840;2023-05-15T08:05:00;10.68;;;4.65;;
31308;SDS011;17936;52.446;10.840;2023-05-15T08:07:25;6.20;;;4.40;;
31308;SDS011;17936;52.446;10.840;2023-05-15T08:09:51;6.80;;;4.13;;
31308;SDS011;17936;52.446;10.840;2023-05-15T08:12:17;5.32;;;4.18;;
31308;SDS011;17936;52.446;10.840;2023-05-15T08:14:46;6.90;;;4.55;;
31308;SDS011;17936;52.446;10.840;2023-05-15T08:17:13;8.00;;;4.38;;
31308;SDS011;17936;52.446;10.840;2023-05-15T08:19:38;8.38;;;4.38;;
31308;SDS011;17936;52.446;10.840;2023-05-15T08:22:04;8.75;;;4.57;;
31308;SDS011;17936;52.446;10.840;2023-05-15T08:24:29;8.18;;;4.97;;
31308;SDS011;17936;52.446;10.840;2023-05-15T08:26:55;6.90;;;4.68;;
31308;SDS011;17936;52.446;10.840;2023-05-15T08:29:21;8.80;;;4.38;;
31308;SDS011;17936;52.446;10.840;2023-05-15T08:31:46;7.82;;;4.93;;
31308;SDS011;17936;52.446;10.840;2023-05-15T08:34:12;9.23;;;4.93;;
31308;SDS011;17936;52.446;10.840;2023-05-15T08:36:37;11.57;;;5.45;;
31308;SDS011;17936;52.446;10.840;2023-05-15T08:39:02;6.07;;;4.55;;
31308;SDS011;17936;52.446;10.840;2023-05-15T08:41:31;11.93;;;5.50;;
31308;SDS011;17936;52.446;10.840;2023-05-15T08:44:01;9.90;;;4.15;;
31308;SDS011;17936;52.446;10.840;2023-05-15T08:46:28;9.80;;;4.20;;
31308;SDS011;17936;52.446;10.840;2023-05-15T08:48:55;9.18;;;4.68;;
31308;SDS011;17936;52.446;10.840;2023-05-15T08:51:22;8.50;;;4.47;;
31308;SDS011;17936;52.446;10.840;2023-05-15T08:53:48;11.38;;;4.68;;
31308;SDS011;17936;52.446;10.840;2023-05-15T08:56:14;15.27;;;4.68;;
31308;SDS011;17936;52.446;10.840;2023-05-15T08:58:41;5.75;;;4.15;;
31308;SDS011;17936;52.446;10.840;2023-05-15T09:01:07;11.60;;;4.07;;
31308;SDS011;17936;52.446;10.840;2023-05-15T09:03:33;5.57;;;3.53;;
31308;SDS011;17936;52.446;10.840;2023-05-15T09:05:59;8.35;;;2.97;;
31308;SDS011;17936;52.446;10.840;2023-05-15T09:08:25;4.93;;;2.95;;
31308;SDS011;17936;52.446;10.840;2023-05-15T09:10:54;8.73;;;3.40;;
31308;SDS011;17936;52.446;10.840;2023-05-15T09:13:22;6.57;;;3.10;;
31308;SDS011;17936;52.446;10.840;2023-05-15T09:15:47;10.25;;;2.95;;
31308;SDS011;17936;52.446;10.840;2023-05-15T09:18:13;3.92;;;2.50;;
31308;SDS011;17936;52.446;10.840;2023-05-15T09:20:40;3.90;;;2.35;;
31308;SDS011;17936;52.446;10.840;2023-05-15T09:23:19;3.63;;;2.28;;
31308;SDS011;17936;52.446;10.840;2023-05-15T09:25:47;3.93;;;2.13;;
31308;SDS011;17936;52.446;10.840;2023-05-15T09:28:27;5.50;;;2.25;;
31308;SDS011;17936;52.446;10.840;2023-05-15T09:30:58;3.88;;;2.25;;
31308;SDS011;17936;52.446;10.840;2023-05-15T09:33:30;3.95;;;2.15;;
31308;SDS011;17936;52.446;10.840;2023-05-15T09:35:57;5.65;;;2.22;;
31308;SDS011;17936;52.446;10.840;2023-05-15T09:38:22;9.13;;;2.65;;
31308;SDS011;17936;52.446;10.840;2023-05-15T09:40:48;7.35;;;2.20;;
31308;SDS011;17936;52.446;10.840;2023-05-15T09:43:14;3.80;;;2.20;;
31308;SDS011;17936;52.446;10.840;2023-05-15T09:45:40;6.78;;;2.40;;
31308;SDS011;17936;52.446;10.840;2023-05-15T09:48:06;4.45;;;2.05;;
31308;SDS011;17936;52.446;10.840;2023-05-15T09:50:33;5.82;;;2.25;;
31308;SDS011;17936;52.446;10.840;2023-05-15T09:53:00;5.65;;;1.95;;
31308;SDS011;17936;52.446;10.840;2023-05-15T09:55:26;7.10;;;2.17;;
31308;SDS011;17936;52.446;10.840;2023-05-15T09:58:25;2.38;;;1.50;;
31308;SDS011;17936;52.446;10.840;2023-05-15T10:00:44;3.83;;;2.08;;
31308;SDS011;17936;52.446;10.840;2023-05-15T10:03:11;7.57;;;2.30;;
31308;SDS011;17936;52.446;10.840;2023-05-15T10:05:37;6.68;;;2.30;;
31308;SDS011;17936;52.446;10.840;2023-05-15T10:08:03;3.70;;;2.08;;
31308;SDS011;17936;52.446;10.840;2023-05-15T10:10:29;3.42;;;2.10;;
31308;SDS011;17936;52.446;10.840;2023-05-15T10:12:56;4.45;;;2.00;;
31308;SDS011;17936;52.446;10.840;2023-05-15T10:15:25;3.85;;;1.90;;
31308;SDS011;17936;52.446;10.840;2023-05-15T10:17:53;5.93;;;2.08;;
31308;SDS011;17936;52.446;10.840;2023-05-15T10:20:20;6.57;;;3.00;;
31308;SDS011;17936;52.446;10.840;2023-05-15T10:22:49;4.03;;;1.90;;
31308;SDS011;17936;52.446;10.840;2023-05-15T10:28:09;5.30;;;2.20;;
31308;SDS011;17936;52.446;10.840;2023-05-15T10:30:36;5.07;;;2.55;;
31308;SDS011;17936;52.446;10.840;2023-05-15T10:33:02;6.43;;;2.50;;
31308;SDS011;17936;52.446;10.840;2023-05-15T10:35:29;5.32;;;2.22;;
31308;SDS011;17936;52.446;10.840;2023-05-15T10:37:55;8.45;;;2.25;;
31308;SDS011;17936;52.446;10.840;2023-05-15T10:40:21;4.35;;;2.50;;
31308;SDS011;17936;52.446;10.840;2023-05-15T10:42:48;3.42;;;2.17;;
31308;SDS011;17936;52.446;10.840;2023-05-15T10:45:14;6.45;;;2.05;;
31308;SDS011;17936;52.446;10.840;2023-05-15T10:47:40;7.88;;;2.47;;
31308;SDS011;17936;52.446;10.840;2023-05-15T10:50:07;6.50;;;2.63;;
31308;SDS011;17936;52.446;10.840;2023-05-15T10:52:37;4.00;;;2.40;;
31308;SDS011;17936;52.446;10.840;2023-05-15T10:55:12;4.85;;;2.47;;
31308;SDS011;17936;52.446;10.840;2023-05-15T10:57:41;4.10;;;2.30;;
31308;SDS011;17936;52.446;10.840;2023-05-15T11:02:47;7.03;;;2.30;;
31308;SDS011;17936;52.446;10.840;2023-05-15T11:05:13;4.40;;;1.95;;
31308;SDS011;17936;52.446;10.840;2023-05-15T11:07:39;5.25;;;2.42;;
31308;SDS011;17936;52.446;10.840;2023-05-15T11:12:58;8.13;;;2.40;;
31308;SDS011;17936;52.446;10.840;2023-05-15T11:15:25;3.25;;;2.10;;
31308;SDS011;17936;52.446;10.840;2023-05-15T11:18:03;5.03;;;2.22;;
31308;SDS011;17936;52.446;10.840;2023-05-15T11:20:39;3.33;;;1.98;;
31308;SDS011;17936;52.446;10.840;2023-05-15T11:23:06;3.95;;;2.15;;
31308;SDS011;17936;52.446;10.840;2023-05-15T11:25:34;5.05;;;2.30;;
31308;SDS011;17936;52.446;10.840;2023-05-15T11:28:01;3.35;;;2.25;;
31308;SDS011;17936;52.446;10.840;2023-05-15T11:30:37;5.63;;;2.33;;
31308;SDS011;17936;52.446;10.840;2023-05-15T11:33:04;5.28;;;2.53;;
31308;SDS011;17936;52.446;10.840;2023-05-15T11:35:42;8.85;;;2.95;;
31308;SDS011;17936;52.446;10.840;2023-05-15T11:38:15;4.22;;;2.08;;
31308;SDS011;17936;52.446;10.840;2023-05-15T11:43:23;3.95;;;2.38;;
31308;SDS011;17936;52.446;10.840;2023-05-15T11:45:50;4.03;;;2.38;;
31308;SDS011;17936;52.446;10.840;2023-05-15T11:48:20;6.25;;;2.65;;
31308;SDS011;17936;52.446;10.840;2023-05-15T11:50:46;5.95;;;2.38;;
31308;SDS011;17936;52.446;10.840;2023-05-15T11:53:12;4.25;;;2.80;;
31308;SDS011;17936;52.446;10.840;2023-05-15T11:55:40;5.05;;;2.60;;
31308;SDS011;17936;52.446;10.840;2023-05-15T11:58:25;7.22;;;3.42;;
31308;SDS011;17936;52.446;10.840;2023-05-15T12:00:51;8.52;;;3.13;;
31308;SDS011;17936;52.446;10.840;2023-05-15T12:03:24;7.20;;;3.08;;
31308;SDS011;17936;52.446;10.840;2023-05-15T12:05:51;5.43;;;2.92;;
31308;SDS011;17936;52.446;10.840;2023-05-15T12:08:17;8.90;;;2.80;;
31308;SDS011;17936;52.446;10.840;2023-05-15T12:10:45;8.77;;;3.53;;
31308;SDS011;17936;52.446;10.840;2023-05-15T12:13:11;6.28;;;3.53;;
31308;SDS011;17936;52.446;10.840;2023-05-15T12:15:38;8.65;;;3.40;;
31308;SDS011;17936;52.446;10.840;2023-05-15T12:18:06;10.18;;;2.92;;
31308;SDS011;17936;52.446;10.840;2023-05-15T12:20:33;5.47;;;2.60;;
31308;SDS011;17936;52.446;10.840;2023-05-15T12:23:01;5.00;;;2.58;;
31308;SDS011;17936;52.446;10.840;2023-05-15T12:25:28;3.80;;;2.67;;
31308;SDS011;17936;52.446;10.840;2023-05-15T12:27:54;4.28;;;2.53;;
31308;SDS011;17936;52.446;10.840;2023-05-15T12:30:20;4.93;;;2.63;;
31308;SDS011;17936;52.446;10.840;2023-05-15T12:32:46;4.63;;;3.05;;
31308;SDS011;17936;52.446;10.840;2023-05-15T12:35:12;3.55;;;2.38;;
31308;SDS011;17936;52.446;10.840;2023-05-15T12:37:40;7.18;;;2.53;;
31308;SDS011;17936;52.446;10.840;2023-05-15T12:40:06;3.08;;;2.22;;
31308;SDS011;17936;52.446;10.840;2023-05-15T12:42:39;8.27;;;2.50;;
31308;SDS011;17936;52.446;10.840;2023-05-15T12:45:15;4.38;;;2.65;;
31308;SDS011;17936;52.446;10.840;2023-05-15T12:47:43;4.47;;;2.67;;
31308;SDS011;17936;52.446;10.840;2023-05-15T12:52:39;5.97;;;3.10;;
31308;SDS011;17936;52.446;10.840;2023-05-15T12:55:13;4.93;;;2.97;;
31308;SDS011;17936;52.446;10.840;2023-05-15T12:57:40;5.30;;;2.63;;
31308;SDS011;17936;52.446;10.840;2023-05-15T13:00:09;5.20;;;3.28;;
31308;SDS011;17936;52.446;10.840;2023-05-15T13:02:35;3.53;;;2.45;;
31308;SDS011;17936;52.446;10.840;2023-05-15T13:05:01;7.15;;;3.40;;
31308;SDS011;17936;52.446;10.840;2023-05-15T13:07:28;6.38;;;3.10;;
31308;SDS011;17936;52.446;10.840;2023-05-15T13:10:06;7.15;;;3.10;;
31308;SDS011;17936;52.446;10.840;2023-05-15T13:12:36;8.38;;;3.25;;
31308;SDS011;17936;52.446;10.840;2023-05-15T13:15:03;5.13;;;2.90;;
31308;SDS011;17936;52.446;10.840;2023-05-15T13:17:30;8.98;;;3.03;;
31308;SDS011;17936;52.446;10.840;2023-05-15T13:19:56;4.13;;;2.80;;
31308;SDS011;17936;52.446;10.840;2023-05-15T13:22:21;9.43;;;3.08;;
31308;SDS011;17936;52.446;10.840;2023-05-15T13:24:47;3.83;;;2.60;;
31308;SDS011;17936;52.446;10.840;2023-05-15T13:27:12;8.00;;;3.30;;
31308;SDS011;17936;52.446;10.840;2023-05-15T13:29:38;6.78;;;2.97;;
31308;SDS011;17936;52.446;10.840;2023-05-15T13:32:03;11.20;;;3.10;;
31308;SDS011;17936;52.446;10.840;2023-05-15T13:34:29;9.43;;;2.70;;
31308;SDS011;17936;52.446;10.840;2023-05-15T13:36:55;5.50;;;2.88;;
31308;SDS011;17936;52.446;10.840;2023-05-15T13:39:20;4.07;;;2.83;;
31308;SDS011;17936;52.446;10.840;2023-05-15T13:41:46;5.82;;;2.92;;
31308;SDS011;17936;52.446;10.840;2023-05-15T13:44:11;4.35;;;2.97;;
31308;SDS011;17936;52.446;10.840;2023-05-15T13:46:38;3.63;;;2.47;;
31308;SDS011;17936;52.446;10.840;2023-05-15T13:49:04;3.42;;;2.28;;
31308;SDS011;17936;52.446;10.840;2023-05-15T13:51:30;3.33;;;2.15;;
31308;SDS011;17936;52.446;10.840;2023-05-15T13:53:55;5.25;;;2.80;;
31308;SDS011;17936;52.446;10.840;2023-05-15T13:56:21;5.05;;;2.55;;
31308;SDS011;17936;52.446;10.840;2023-05-15T13:58:46;3.50;;;2.38;;
31308;SDS011;17936;52.446;10.840;2023-05-15T14:01:12;3.70;;;2.58;;
31308;SDS011;17936;52.446;10.840;2023-05-15T14:03:37;4.57;;;2.90;;
31308;SDS011;17936;52.446;10.840;2023-05-15T14:06:03;6.93;;;2.67;;
31308;SDS011;17936;52.446;10.840;2023-05-15T14:08:28;6.75;;;2.78;;
31308;SDS011;17936;52.446;10.840;2023-05-15T14:10:54;6.82;;;2.72;;
31308;SDS011;17936;52.446;10.840;2023-05-15T14:13:19;6.90;;;2.58;;
31308;SDS011;17936;52.446;10.840;2023-05-15T14:15:45;4.50;;;2.92;;
31308;SDS011;17936;52.446;10.840;2023-05-15T14:18:11;3.38;;;2.45;;
31308;SDS011;17936;52.446;10.840;2023-05-15T14:20:36;4.15;;;2.70;;
31308;SDS011;17936;52.446;10.840;2023-05-15T14:23:02;4.30;;;2.55;;
31308;SDS011;17936;52.446;10.840;2023-05-15T14:25:27;8.35;;;2.65;;
31308;SDS011;17936;52.446;10.840;2023-05-15T14:27:53;6.85;;;2.65;;
31308;SDS011;17936;52.446;10.840;2023-05-15T14:30:20;3.60;;;2.67;;
31308;SDS011;17936;52.446;10.840;2023-05-15T14:32:46;3.78;;;2.50;;
31308;SDS011;17936;52.446;10.840;2023-05-15T14:35:11;5.05;;;3.00;;
31308;SDS011;17936;52.446;10.840;2023-05-15T14:37:37;4.85;;;2.90;;
31308;SDS011;17936;52.446;10.840;2023-05-15T14:40:02;4.70;;;2.70;;
31308;SDS011;17936;52.446;10.840;2023-05-15T14:42:28;4.85;;;2.30;;
31308;SDS011;17936;52.446;10.840;2023-05-15T14:44:54;7.50;;;2.28;;
31308;SDS011;17936;52.446;10.840;2023-05-15T14:47:20;6.00;;;2.42;;
31308;SDS011;17936;52.446;10.840;2023-05-15T14:49:45;11.15;;;2.63;;
31308;SDS011;17936;52.446;10.840;2023-05-15T14:52:11;2.78;;;2.03;;